createdAt,value
2022-12-20T00:01:56.395Z,100365.45
2022-12-20T00:04:24.746Z,100367.86
2022-12-20T00:06:53.176Z,100367.70
2022-12-20T00:09:21.928Z,100363.77
2022-12-20T00:11:50.222Z,100363.61
2022-12-20T00:14:18.726Z,100364.65
2022-12-20T00:16:47.176Z,100360.89
2022-12-20T00:19:16.851Z,100359.86
2022-12-20T00:21:45.416Z,100360.52
2022-12-20T00:24:13.762Z,100356.08
2022-12-20T00:26:42.290Z,100356.61
2022-12-20T00:29:11.754Z,100352.84
2022-12-20T00:31:40.132Z,100349.27
2022-12-20T00:34:11.030Z,100342.91
2022-12-20T00:36:40.779Z,100348.06
2022-12-20T00:39:10.082Z,100342.76
2022-12-20T00:41:38.444Z,100340.19
2022-12-20T00:44:06.944Z,100331.27
2022-12-20T00:46:35.789Z,100329.57
2022-12-20T00:49:04.107Z,100327.52
2022-12-20T00:51:32.936Z,100326.33
2022-12-20T00:54:01.389Z,100330.44
2022-12-20T00:56:29.855Z,100320.15
2022-12-20T00:59:00.087Z,100324.42
2022-12-20T01:01:32.126Z,100313.98
2022-12-20T01:04:01.235Z,100305.23
2022-12-20T01:06:30.606Z,100300.59
2022-12-20T01:08:59.334Z,100295.11
2022-12-20T01:11:31.558Z,100301.61
2022-12-20T01:14:02.961Z,100309.86
2022-12-20T01:16:35.698Z,100311.92
2022-12-20T01:19:05.458Z,100303.67
2022-12-20T01:21:34.601Z,100302.98
2022-12-20T01:24:03.004Z,100295.27
2022-12-20T01:26:31.338Z,100294.77
2022-12-20T01:29:00.854Z,100302.13
2022-12-20T01:31:30.560Z,100304.70
2022-12-20T01:33:59.924Z,100295.27
2022-12-20T01:36:34.109Z,100303.67
2022-12-20T01:39:06.437Z,100314.81
2022-12-20T01:41:35.585Z,100307.61
2022-12-20T01:44:17.105Z,100300.23
2022-12-20T01:46:48.730Z,100295.08
2022-12-20T01:49:30.017Z,100296.10
2022-12-20T01:52:06.266Z,100292.80
2022-12-20T01:54:39.669Z,100292.80
2022-12-20T01:57:21.384Z,100293.84
2022-12-20T01:59:52.548Z,100290.60
2022-12-20T02:02:23.117Z,100290.61
2022-12-20T02:04:51.571Z,100290.61
2022-12-20T02:07:24.780Z,100287.00
2022-12-20T02:09:55.370Z,100278.23
2022-12-20T02:12:34.143Z,100276.02
2022-12-20T02:15:23.850Z,100282.17
2022-12-20T02:18:10.734Z,100275.99
2022-12-20T02:21:07.276Z,100272.55
2022-12-20T02:23:43.331Z,100278.73
2022-12-20T02:26:38.171Z,100276.84
2022-12-20T02:29:18.897Z,100271.00
2022-12-20T02:31:54.035Z,100269.11
2022-12-20T02:34:27.940Z,100268.59
2022-12-20T02:36:56.887Z,100267.58
2022-12-20T02:39:29.197Z,100288.69
2022-12-20T02:41:59.341Z,100287.14
2022-12-20T02:44:49.799Z,100287.30
2022-12-20T02:47:25.193Z,100291.59
2022-12-20T02:49:56.057Z,100291.42
2022-12-20T02:52:31.192Z,100289.70
2022-12-20T02:55:01.177Z,100280.61
2022-12-20T02:57:57.896Z,100279.25
2022-12-20T03:00:33.817Z,100269.80
2022-12-20T03:03:21.635Z,100264.47
2022-12-20T03:05:55.999Z,100265.14
2022-12-20T03:08:25.112Z,100269.06
2022-12-20T03:10:55.304Z,100254.27
2022-12-20T03:13:25.355Z,100248.05
2022-12-20T03:16:00.707Z,100248.70
2022-12-20T03:18:29.576Z,100241.83
2022-12-20T03:20:58.211Z,100246.83
2022-12-20T03:23:27.071Z,100257.48
2022-12-20T03:25:55.578Z,100259.69
2022-12-20T03:28:34.797Z,100253.81
2022-12-20T03:31:04.233Z,100258.60
2022-12-20T03:33:34.663Z,100247.25
2022-12-20T03:36:07.824Z,100246.35
2022-12-20T03:38:36.425Z,100243.78
2022-12-20T03:41:06.703Z,100246.55
2022-12-20T03:43:35.265Z,100256.85
2022-12-20T03:46:04.050Z,100245.19
2022-12-20T03:48:36.925Z,100248.98
2022-12-20T03:51:05.723Z,100247.40
2022-12-20T03:53:34.904Z,100245.48
2022-12-20T03:56:03.940Z,100250.45
2022-12-20T03:58:32.369Z,100249.41
2022-12-20T04:01:01.457Z,100240.12
2022-12-20T04:03:43.290Z,100243.74
2022-12-20T04:06:12.063Z,100247.20
2022-12-20T04:08:40.567Z,100251.16
2022-12-20T04:11:16.441Z,100242.25
2022-12-20T04:14:08.867Z,100239.66
2022-12-20T04:16:37.814Z,100243.45
2022-12-20T04:19:07.351Z,100249.63
2022-12-20T04:21:40.483Z,100246.34
2022-12-20T04:24:10.568Z,100239.98
2022-12-20T04:27:02.476Z,100234.98
2022-12-20T04:29:31.285Z,100233.77
2022-12-20T04:32:00.391Z,100230.68
2022-12-20T04:34:29.859Z,100240.64
2022-12-20T04:36:59.306Z,100241.48
2022-12-20T04:39:38.503Z,100236.83
2022-12-20T04:42:28.216Z,100231.49
2022-12-20T04:44:57.271Z,100226.02
2022-12-20T04:47:27.991Z,100226.18
2022-12-20T04:49:56.850Z,100225.99
2022-12-20T04:52:48.015Z,100219.30
2022-12-20T04:55:16.907Z,100210.66
2022-12-20T04:57:46.169Z,100215.77
2022-12-20T05:00:15.628Z,100211.64
2022-12-20T05:02:45.636Z,100207.51
2022-12-20T05:05:17.180Z,100210.27
2022-12-20T05:07:50.357Z,100213.23
2022-12-20T05:10:19.674Z,100209.08
2022-12-20T05:12:50.063Z,100212.50
2022-12-20T05:15:26.120Z,100209.23
2022-12-20T05:17:59.603Z,100213.38
2022-12-20T05:20:31.471Z,100213.20
2022-12-20T05:23:19.951Z,100209.23
2022-12-20T05:26:09.487Z,100206.95
2022-12-20T05:28:38.049Z,100218.96
2022-12-20T05:31:06.750Z,100217.58
2022-12-20T05:33:37.082Z,100220.52
2022-12-20T05:36:06.132Z,100219.30
2022-12-20T05:38:34.878Z,100213.45
2022-12-20T05:41:06.163Z,100221.05
2022-12-20T05:43:34.841Z,100222.60
2022-12-20T05:46:05.944Z,100228.43
2022-12-20T05:48:42.428Z,100222.90
2022-12-20T05:51:12.175Z,100226.49
2022-12-20T05:53:53.530Z,100227.48
2022-12-20T05:56:25.347Z,100231.42
2022-12-20T05:58:53.706Z,100237.77
2022-12-20T06:01:22.185Z,100243.64
2022-12-20T06:03:51.692Z,100244.67
2022-12-20T06:06:20.178Z,100240.55
2022-12-20T06:08:49.358Z,100244.36
2022-12-20T06:11:40.273Z,100244.55
2022-12-20T06:14:11.580Z,100252.13
2022-12-20T06:16:45.603Z,100254.20
2022-12-20T06:19:21.206Z,100246.63
2022-12-20T06:21:50.628Z,100241.82
2022-12-20T06:24:25.451Z,100234.30
2022-12-20T06:26:54.759Z,100226.08
2022-12-20T06:29:24.872Z,100228.83
2022-12-20T06:32:00.298Z,100233.95
2022-12-20T06:34:29.050Z,100241.35
2022-12-20T06:36:57.531Z,100241.52
2022-12-20T06:39:29.551Z,100234.50
2022-12-20T06:42:05.598Z,100234.15
2022-12-20T06:44:35.405Z,100228.61
2022-12-20T06:47:03.915Z,100228.41
2022-12-20T06:49:32.272Z,100234.46
2022-12-20T06:52:00.968Z,100226.38
2022-12-20T06:54:45.374Z,100222.75
2022-12-20T06:57:15.062Z,100223.79
2022-12-20T06:59:45.471Z,100232.39
2022-12-20T07:02:14.250Z,100232.06
2022-12-20T07:04:42.919Z,100235.67
2022-12-20T07:07:13.344Z,100238.41
2022-12-20T07:09:42.852Z,100239.42
2022-12-20T07:12:12.176Z,100233.38
2022-12-20T07:14:40.511Z,100231.46
2022-12-20T07:17:09.269Z,100233.67
2022-12-20T07:19:38.134Z,100236.42
2022-12-20T07:22:06.862Z,100242.99
2022-12-20T07:24:35.222Z,100241.46
2022-12-20T07:27:03.867Z,100249.54
2022-12-20T07:29:32.297Z,100244.50
2022-12-20T07:32:00.791Z,100250.64
2022-12-20T07:34:29.423Z,100249.95
2022-12-20T07:36:57.822Z,100255.98
2022-12-20T07:39:26.372Z,100255.48
2022-12-20T07:41:55.688Z,100258.91
2022-12-20T07:44:24.475Z,100264.41
2022-12-20T07:46:53.469Z,100256.84
2022-12-20T07:49:22.353Z,100259.08
2022-12-20T07:51:55.615Z,100253.93
2022-12-20T07:54:38.465Z,100256.67
2022-12-20T07:57:12.719Z,100265.95
2022-12-20T07:59:47.505Z,100259.25
2022-12-20T08:02:22.481Z,100263.50
2022-12-20T08:04:51.127Z,100266.73
2022-12-20T08:07:19.691Z,100268.27
2022-12-20T08:09:48.604Z,100261.36
2022-12-20T08:12:19.320Z,100261.36
2022-12-20T08:14:47.868Z,100259.83
2022-12-20T08:17:16.490Z,100249.73
2022-12-20T08:19:44.946Z,100249.77
2022-12-20T08:22:13.275Z,100254.55
2022-12-20T08:24:41.553Z,100249.19
2022-12-20T08:27:09.925Z,100255.16
2022-12-20T08:29:38.364Z,100260.51
2022-12-20T08:32:06.756Z,100264.64
2022-12-20T08:34:35.456Z,100261.89
2022-12-20T08:37:09.045Z,100267.55
2022-12-20T08:39:40.940Z,100265.97
2022-12-20T08:42:12.743Z,100260.80
2022-12-20T08:44:41.137Z,100257.70
2022-12-20T08:47:10.541Z,100253.93
2022-12-20T08:49:44.018Z,100253.04
2022-12-20T08:52:16.002Z,100250.59
2022-12-20T08:54:44.358Z,100253.87
2022-12-20T08:57:13.157Z,100248.52
2022-12-20T08:59:43.892Z,100249.01
2022-12-20T09:02:12.525Z,100256.59
2022-12-20T09:04:41.290Z,100256.19
2022-12-20T09:07:09.980Z,100256.14
2022-12-20T09:09:38.428Z,100261.44
2022-12-20T09:12:07.929Z,100267.06
2022-12-20T09:14:36.341Z,100265.17
2022-12-20T09:17:04.883Z,100270.20
2022-12-20T09:19:33.528Z,100270.02
2022-12-20T09:22:02.015Z,100270.52
2022-12-20T09:24:30.689Z,100274.84
2022-12-20T09:27:00.118Z,100272.95
2022-12-20T09:29:35.248Z,100273.16
2022-12-20T09:32:04.607Z,100278.81
2022-12-20T09:34:33.176Z,100277.41
2022-12-20T09:37:01.722Z,100276.52
2022-12-20T09:39:30.384Z,100272.52
2022-12-20T09:41:59.335Z,100269.58
2022-12-20T09:44:32.450Z,100262.02
2022-12-20T11:13:22.792Z,100212.04
2022-12-20T11:15:54.082Z,100210.05
2022-12-20T11:18:48.481Z,100211.73
2022-12-20T11:21:45.274Z,100204.84
2022-12-20T11:24:23.312Z,100206.71
2022-12-20T11:27:09.309Z,100202.83
2022-12-20T11:29:46.900Z,100200.85
2022-12-20T11:32:48.815Z,100193.73
2022-12-20T11:35:16.639Z,100193.66
2022-12-20T11:38:07.203Z,100189.91
2022-12-20T11:40:43.639Z,100198.06
2022-12-20T11:44:23.350Z,100200.30
2022-12-20T11:47:20.901Z,100202.66
2022-12-20T11:50:02.680Z,100204.75
2022-12-20T11:52:35.593Z,100207.13
2022-12-20T11:55:06.140Z,100198.98
2022-12-20T11:58:16.485Z,100199.18
2022-12-20T12:00:34.721Z,100203.73
2022-12-20T12:03:12.297Z,100200.26
2022-12-20T12:05:58.824Z,100196.39
2022-12-20T12:09:06.063Z,100194.58
2022-12-20T12:12:06.039Z,100189.30
2022-12-20T12:14:34.859Z,100185.70
2022-12-20T12:17:11.484Z,100181.36
2022-12-20T12:19:42.929Z,100189.27
2022-12-20T12:22:22.256Z,100180.81
2022-12-20T12:24:56.633Z,100178.77
2022-12-20T12:27:26.103Z,100176.41
2022-12-20T12:29:58.492Z,100181.45
2022-12-20T12:32:30.689Z,100180.03
2022-12-20T12:35:38.996Z,100186.23
2022-12-20T12:38:33.866Z,100175.56
2022-12-20T12:41:09.659Z,100168.10
2022-12-20T12:43:45.090Z,100173.42
2022-12-20T12:46:21.617Z,100173.88
2022-12-20T12:48:56.035Z,100163.40
2022-12-20T12:51:34.725Z,100167.40
2022-12-20T12:54:16.391Z,100170.61
2022-12-20T12:56:49.042Z,100177.63
2022-12-20T12:59:40.374Z,100177.10
2022-12-20T13:02:14.137Z,100183.75
2022-12-20T13:05:04.239Z,100180.65
2022-12-20T13:07:31.901Z,100181.51
2022-12-20T13:10:24.371Z,100185.91
2022-12-20T13:12:51.597Z,100184.55
2022-12-20T13:15:18.703Z,100181.29
2022-12-20T13:17:59.124Z,100187.92
2022-12-20T13:20:29.673Z,100180.94
2022-12-20T13:23:12.228Z,100178.72
2022-12-20T13:25:57.750Z,100185.16
2022-12-20T13:28:25.190Z,100183.91
2022-12-20T13:31:01.754Z,100192.09
2022-12-20T13:33:44.590Z,100191.16
2022-12-20T13:36:11.772Z,100192.52
2022-12-20T13:38:45.004Z,100188.92
2022-12-20T13:41:36.094Z,100189.98
2022-12-20T13:44:15.752Z,100186.55
2022-12-20T13:47:10.963Z,100181.06
2022-12-20T13:49:40.425Z,100181.92
2022-12-20T13:52:20.491Z,100176.28
2022-12-20T13:54:51.880Z,100174.34
2022-12-20T13:57:26.847Z,100176.58
2022-12-20T14:00:03.515Z,100165.39
2022-12-20T14:02:40.467Z,100171.61
2022-12-20T14:05:25.955Z,100167.80
2022-12-20T14:08:14.566Z,100161.73
2022-12-20T14:10:41.740Z,100166.80
2022-12-20T14:13:38.457Z,100174.02
2022-12-20T14:16:18.082Z,100170.31
2022-12-20T14:18:57.714Z,100159.27
2022-12-20T14:21:26.074Z,100153.21
2022-12-20T14:23:56.482Z,100149.38
2022-12-20T14:26:29.396Z,100150.35
2022-12-20T14:28:58.375Z,100151.35
2022-12-20T14:31:30.243Z,100152.21
2022-12-20T14:34:16.680Z,100144.83
2022-12-20T14:36:46.836Z,100140.20
2022-12-20T14:39:31.567Z,100140.55
2022-12-20T14:42:12.774Z,100141.23
2022-12-20T14:44:40.737Z,100131.72
2022-12-20T14:47:25.464Z,100122.26
2022-12-20T14:50:01.999Z,100111.74
2022-12-20T14:52:37.626Z,100105.75
2022-12-20T14:55:29.516Z,100103.86
2022-12-20T14:57:57.615Z,100100.91
2022-12-20T15:00:31.373Z,100099.39
2022-12-20T15:03:01.607Z,100092.28
2022-12-20T15:05:44.912Z,100097.09
2022-12-20T15:08:18.967Z,100097.39
2022-12-20T15:10:54.265Z,100115.98
2022-12-20T15:13:39.665Z,100126.29
2022-12-20T15:16:28.703Z,100136.95
2022-12-20T15:19:01.479Z,100132.72
2022-12-20T15:21:32.150Z,100137.37
2022-12-20T15:24:01.993Z,100137.89
2022-12-20T15:26:30.481Z,100134.29
2022-12-20T15:28:57.799Z,100135.63
2022-12-20T15:31:32.825Z,100137.35
2022-12-20T15:34:03.954Z,100137.45
2022-12-20T15:36:33.011Z,100137.25
2022-12-20T15:39:15.815Z,100140.87
2022-12-20T15:41:46.508Z,100140.16
2022-12-20T15:44:23.119Z,100146.52
2022-12-20T15:46:50.502Z,100141.27
2022-12-20T15:49:20.836Z,100138.29
2022-12-20T15:51:49.556Z,100133.83
2022-12-20T15:54:29.260Z,100130.30
2022-12-20T15:57:06.780Z,100122.83
2022-12-20T15:59:59.684Z,100122.21
2022-12-20T16:02:27.449Z,100122.95
2022-12-20T16:04:55.837Z,100117.59
2022-12-20T16:07:23.475Z,100119.58
2022-12-20T16:09:51.097Z,100109.35
2022-12-20T16:12:26.558Z,100108.11
2022-12-20T16:14:54.572Z,100098.52
2022-12-20T16:17:21.855Z,100102.35
2022-12-20T16:19:50.116Z,100105.46
2022-12-20T16:22:21.566Z,100100.84
2022-12-20T16:24:49.374Z,100104.16
2022-12-20T16:27:17.205Z,100090.38
2022-12-20T16:29:44.754Z,100088.60
2022-12-20T16:32:18.326Z,100085.11
2022-12-20T16:34:46.028Z,100083.28
2022-12-20T16:37:13.436Z,100080.91
2022-12-20T16:39:44.202Z,100074.56
2022-12-20T16:42:15.267Z,100068.48
2022-12-20T16:44:44.196Z,100077.70
2022-12-20T16:47:11.724Z,100078.14
2022-12-20T16:49:38.998Z,100080.16
2022-12-20T16:52:16.194Z,100083.42
2022-12-20T16:54:43.368Z,100082.65
2022-12-20T16:57:10.520Z,100087.84
2022-12-20T16:59:37.871Z,100087.83
2022-12-20T17:02:21.175Z,100084.54
2022-12-20T17:04:48.834Z,100085.27
2022-12-20T17:07:15.998Z,100087.06
2022-12-20T17:12:28.352Z,100077.11
2022-12-20T17:14:55.971Z,100084.37
2022-12-20T17:17:23.044Z,100077.37
2022-12-20T17:19:50.400Z,100084.42
2022-12-20T17:22:24.146Z,100079.83
2022-12-20T17:24:52.041Z,100074.59
2022-12-20T17:27:19.324Z,100073.82
2022-12-20T17:29:46.461Z,100071.70
2022-12-20T17:32:22.548Z,100065.50
2022-12-20T17:34:50.663Z,100063.70
2022-12-20T17:37:18.359Z,100061.88
2022-12-20T17:39:45.706Z,100064.17
2022-12-20T17:42:13.369Z,100067.45
2022-12-20T17:44:40.604Z,100063.48
2022-12-20T17:47:07.789Z,100047.12
2022-12-20T17:49:34.887Z,100046.77
2022-12-20T17:52:02.063Z,100051.21
2022-12-20T17:54:35.149Z,100061.52
2022-12-20T17:57:11.371Z,100051.50
2022-12-20T17:59:38.948Z,100040.29
2022-12-20T18:02:21.325Z,100034.83
2022-12-20T18:04:49.337Z,100030.98
2022-12-20T18:07:16.880Z,100038.11
2022-12-20T18:09:46.953Z,100038.74
2022-12-20T18:12:14.240Z,100040.25
2022-12-20T18:14:41.563Z,100034.61
2022-12-20T18:17:08.772Z,100034.63
2022-12-20T18:19:36.083Z,100034.24
2022-12-20T18:22:04.207Z,100034.65
2022-12-20T18:24:31.635Z,100039.59
2022-12-20T18:26:58.882Z,100042.13
2022-12-20T18:29:26.198Z,100045.67
2022-12-20T18:31:53.490Z,100043.98
2022-12-20T18:34:20.733Z,100042.21
2022-12-20T18:36:48.077Z,100037.55
2022-12-20T18:39:15.324Z,100029.60
2022-12-20T18:41:43.719Z,100021.86
2022-12-20T18:44:11.410Z,100020.45
2022-12-20T18:46:40.217Z,100019.52
2022-12-20T18:49:08.809Z,100013.18
2022-12-20T18:51:36.654Z,100016.71
2022-12-20T18:54:06.235Z,100020.39
2022-12-20T18:56:36.775Z,100021.44
2022-12-20T18:59:10.756Z,100018.45
2022-12-20T19:01:40.888Z,100014.20
2022-12-20T19:04:08.581Z,100011.45
2022-12-20T19:06:37.343Z,100010.06
2022-12-20T19:09:08.301Z,100008.02
2022-12-20T19:11:35.987Z,99996.30
2022-12-20T19:14:03.151Z,99990.77
2022-12-20T19:16:32.041Z,99990.73
2022-12-20T19:19:01.109Z,99994.80
2022-12-20T19:21:34.410Z,99997.80
2022-12-20T19:24:06.109Z,99983.96
2022-12-20T19:26:35.789Z,99990.02
2022-12-20T19:29:03.821Z,99997.70
2022-12-20T19:31:32.901Z,100004.60
2022-12-20T19:34:03.541Z,100008.71
2022-12-20T19:36:35.561Z,100013.45
2022-12-20T19:39:04.387Z,100018.80
2022-12-20T19:41:33.779Z,100015.44
2022-12-20T19:44:01.861Z,100010.42
2022-12-20T19:46:30.123Z,100009.39
2022-12-20T19:48:59.282Z,100005.98
2022-12-20T19:51:27.722Z,100001.15
2022-12-20T19:53:56.876Z,99994.66
2022-12-20T19:56:28.748Z,99998.67
2022-12-20T19:58:56.424Z,99988.98
2022-12-20T20:01:26.811Z,99979.19
2022-12-20T20:03:56.625Z,99979.88
2022-12-20T20:06:24.353Z,99976.80
2022-12-20T20:08:51.993Z,99972.06
2022-12-20T20:11:20.452Z,99970.84
2022-12-20T20:13:47.701Z,99974.81
2022-12-20T20:16:21.553Z,99976.38
2022-12-20T20:18:49.958Z,99967.10
2022-12-20T20:21:21.373Z,99966.83
2022-12-20T20:23:51.090Z,99962.27
2022-12-20T20:26:23.978Z,99963.98
2022-12-20T20:28:52.072Z,99973.51
2022-12-20T20:31:20.459Z,99981.84
2022-12-20T20:33:48.696Z,99989.26
2022-12-20T20:36:21.500Z,99984.38
2022-12-20T20:38:51.106Z,99973.52
2022-12-20T20:41:18.997Z,99973.89
2022-12-20T20:43:46.231Z,99984.09
2022-12-20T20:46:15.342Z,99982.88
2022-12-20T20:48:43.287Z,99983.41
2022-12-20T20:51:11.240Z,99969.71
2022-12-20T20:53:38.908Z,99963.91
2022-12-20T20:56:07.844Z,99977.34
2022-12-20T20:58:35.434Z,99977.74
2022-12-20T21:01:04.834Z,99969.77
2022-12-20T21:03:32.092Z,99963.46
2022-12-20T21:08:47.197Z,99961.41
2022-12-20T21:11:14.928Z,99965.17
2022-12-20T21:13:42.324Z,99959.58
2022-12-20T21:16:19.504Z,99958.49
2022-12-20T21:18:51.572Z,99965.08
2022-12-20T21:21:19.926Z,99968.81
2022-12-20T21:23:47.882Z,99949.34
2022-12-20T21:26:16.584Z,99950.19
2022-12-20T21:28:43.818Z,99947.83
2022-12-20T21:31:17.668Z,99940.42
2022-12-20T21:33:45.687Z,99950.25
2022-12-20T21:36:15.584Z,99975.20
2022-12-20T21:38:47.577Z,99976.02
2022-12-20T21:41:14.750Z,99981.98
2022-12-20T21:43:42.114Z,99966.89
2022-12-20T21:46:10.677Z,99963.05
2022-12-20T21:48:42.944Z,99946.00
2022-12-20T21:51:21.663Z,99941.11
2022-12-20T21:53:51.676Z,99942.48
2022-12-20T21:56:20.193Z,99937.05
2022-12-20T21:58:48.238Z,99932.43
2022-12-20T22:01:18.612Z,99931.42
2022-12-20T22:03:50.093Z,99936.71
2022-12-20T22:06:18.023Z,99943.58
2022-12-20T22:08:45.346Z,99944.06
2022-12-20T22:11:17.731Z,99943.19
2022-12-20T22:13:45.966Z,99936.20
2022-12-20T22:16:16.214Z,99927.61
2022-12-20T22:18:47.371Z,99929.51
2022-12-20T22:21:16.319Z,99931.58
2022-12-20T22:23:43.532Z,99923.91
2022-12-20T22:26:16.210Z,99919.90
2022-12-20T22:28:46.372Z,99911.86
2022-12-20T22:31:13.831Z,99914.48
2022-12-20T22:33:41.573Z,99922.42
2022-12-20T22:36:10.586Z,99917.70
2022-12-20T22:38:38.075Z,99902.96
2022-12-20T22:41:29.337Z,99904.08
2022-12-20T22:44:00.318Z,99913.46
2022-12-20T22:46:31.130Z,99910.08
2022-12-20T22:48:59.372Z,99905.98
2022-12-20T22:51:30.111Z,99902.73
2022-12-20T22:53:58.501Z,99895.30
2022-12-20T22:56:26.145Z,99897.50
2022-12-20T22:58:53.355Z,99894.88
2022-12-20T23:01:20.935Z,99890.87
2022-12-20T23:03:48.713Z,99883.16
2022-12-20T23:06:19.493Z,99878.95
2022-12-20T23:08:47.567Z,99871.35
2022-12-20T23:11:42.552Z,99875.61
2022-12-20T23:15:03.788Z,99879.85
2022-12-20T23:17:32.604Z,99877.33
2022-12-20T23:20:18.807Z,99874.60
2022-12-20T23:22:46.418Z,99863.86
2022-12-20T23:25:16.638Z,99863.94
2022-12-20T23:27:46.920Z,99858.56
2022-12-20T23:30:17.451Z,99864.08
2022-12-20T23:32:45.528Z,99856.14
2022-12-20T23:35:15.641Z,99859.98
2022-12-20T23:37:44.885Z,99866.60
2022-12-20T23:40:13.627Z,99863.74
2022-12-20T23:42:41.074Z,99862.58
2022-12-20T23:45:10.033Z,99862.63
2022-12-20T23:47:37.355Z,99864.88
2022-12-20T23:50:05.453Z,99861.35
2022-12-20T23:52:32.969Z,99853.09
2022-12-20T23:55:00.334Z,99853.10
2022-12-20T23:57:31.042Z,99850.84
2022-12-20T23:59:58.864Z,99846.16
